Time;durP1;ratioP1;P1;durP2;ratioP2;P2;SDS_P1;SDS_P2;PMS_P1;PMS_P2;Temp;Humidity;BMP_temperature;BMP_pressure;BME280_temperature;BME280_humidity;BME280_pressure;Samples;Min_cycle;Max_cycle;Signal;HPM_P1;HPM_P2
2022/09/04 00:00:10;;;;;;;;;;;24.70;47.00;;;;;;1588216;74;718;-57
2022/09/04 00:02:30;;;;;;;;;;;24.70;47.10;;;;;;1593527;72;705;-59
2022/09/04 00:04:40;;;;;;;;;;;24.70;47.00;;;;;;1596461;72;1641;-59
2022/09/04 00:07:00;;;;;;;;;;;24.70;47.10;;;;;;1597547;72;787;-59
2022/09/04 00:09:03;;;;;;;;;;;24.70;47.10;;;;;;1588777;73;687;-58
2022/09/04 00:11:10;;;;;;;;;;;24.60;46.90;;;;;;1591894;72;872;-59
2022/09/04 00:13:26;;;;;;;;;;;24.70;47.10;;;;;;1584700;74;1991;-58
2022/09/04 00:15:34;;;;;;;;;;;24.60;46.90;;;;;;1588773;72;732;-57
2022/09/04 00:17:37;;;;;;;;;;;24.60;47.00;;;;;;1594337;73;1953;-58
2022/09/04 00:19:43;;;;;;;;;;;24.60;46.90;;;;;;1580615;73;1028;-59
2022/09/04 00:21:50;;;;;;;;;;;24.60;47.00;;;;;;1584677;74;754;-59
2022/09/04 00:23:56;;;;;;;;;;;24.70;47.30;;;;;;1594474;73;1155;-60
2022/09/04 00:26:03;;;;;;;;;;;24.80;47.30;;;;;;1589020;73;704;-59
2022/09/04 00:28:06;;;;;;;;;;;24.80;47.30;;;;;;1601125;73;764;-60
2022/09/04 00:30:13;;;;;;;;;;;24.80;47.30;;;;;;1593829;73;1810;-59
2022/09/04 00:32:31;;;;;;;;;;;24.70;47.30;;;;;;1593984;73;1593;-59
2022/09/04 00:34:51;;;;;;;;;;;24.70;47.40;;;;;;1594582;73;1088;-59
2022/09/04 00:36:53;;;;;;;;;;;24.70;47.30;;;;;;1588017;73;1926;-59
2022/09/04 00:38:57;;;;;;;;;;;24.70;47.40;;;;;;1583156;73;764;-58
2022/09/04 00:41:13;;;;;;;;;;;24.70;47.30;;;;;;1589741;73;726;-59
2022/09/04 00:43:33;;;;;;;;;;;24.70;47.30;;;;;;1548472;74;1083;-59
2022/09/04 00:45:36;;;;;;;;;;;24.70;47.40;;;;;;1588701;72;1345;-58
2022/09/04 00:47:56;;;;;;;;;;;24.70;47.40;;;;;;1586883;72;666;-59
2022/09/04 00:50:15;;;;;;;;;;;24.70;47.60;;;;;;1596255;73;770;-58
2022/09/04 00:52:35;;;;;;;;;;;24.70;47.60;;;;;;1578711;72;1357;-59
2022/09/04 00:54:47;;;;;;;;;;;24.70;47.60;;;;;;1601463;73;1113;-59
2022/09/04 00:57:04;;;;;;;;;;;24.70;47.60;;;;;;1589644;72;1921;-57
2022/09/04 00:59:19;;;;;;;;;;;24.70;47.70;;;;;;1580966;72;1115;-59
2022/09/04 01:01:22;;;;;;;;;;;24.70;47.60;;;;;;1591367;72;1772;-59
2022/09/04 01:03:41;;;;;;;;;;;24.70;47.60;;;;;;1589475;72;1142;-59
2022/09/04 01:05:50;;;;;;;;;;;24.70;47.60;;;;;;1593663;73;1576;-60
2022/09/04 01:08:00;;;;;;;;;;;24.70;47.60;;;;;;1594911;73;824;-59
2022/09/04 01:10:09;;;;;;;;;;;24.80;47.60;;;;;;1596390;74;745;-58
2022/09/04 01:12:31;;;;;;;;;;;24.80;47.50;;;;;;1551082;74;1177;-60
2022/09/04 01:14:47;;;;;;;;;;;24.80;47.30;;;;;;1594937;73;1542;-59
2022/09/04 01:16:59;;;;;;;;;;;24.70;47.10;;;;;;1544720;72;1017;-58
2022/09/04 01:19:15;;;;;;;;;;;24.70;47.10;;;;;;1540735;75;1029;-58
2022/09/04 01:21:18;;;;;;;;;;;24.70;47.10;;;;;;1592633;73;1956;-59
2022/09/04 01:23:38;;;;;;;;;;;24.70;47.10;;;;;;1596723;73;1857;-60
2022/09/04 01:25:53;;;;;;;;;;;24.70;47.20;;;;;;1604122;73;655;-58
2022/09/04 01:28:03;;;;;;;;;;;24.70;47.20;;;;;;1588368;72;1486;-59
2022/09/04 01:30:06;;;;;;;;;;;24.70;47.10;;;;;;1594242;74;731;-59
2022/09/04 01:32:26;;;;;;;;;;;24.60;47.00;;;;;;1595048;73;681;-58
2022/09/04 01:34:30;;;;;;;;;;;24.60;47.00;;;;;;1598166;73;1143;-58
2022/09/04 01:36:43;;;;;;;;;;;24.70;47.10;;;;;;1592571;73;1000;-59
2022/09/04 01:38:55;;;;;;;;;;;24.60;46.80;;;;;;1592783;73;1920;-60
2022/09/04 01:41:15;;;;;;;;;;;24.60;46.80;;;;;;1606262;73;1806;-58
2022/09/04 01:43:24;;;;;;;;;;;24.70;47.20;;;;;;1584834;74;1680;-57
2022/09/04 01:45:24;;;;;;;;;;;24.60;46.80;;;;;;1593012;72;1652;-60
2022/09/04 01:47:27;;;;;;;;;;;24.60;46.80;;;;;;1589190;72;1712;-58
2022/09/04 01:49:40;;;;;;;;;;;24.60;46.60;;;;;;1593701;72;1889;-58
2022/09/04 01:51:44;;;;;;;;;;;24.60;46.50;;;;;;1593928;72;784;-60
2022/09/04 01:53:46;;;;;;;;;;;24.70;46.60;;;;;;1582926;73;1139;-59
2022/09/04 01:55:49;;;;;;;;;;;24.70;46.60;;;;;;1593072;73;1509;-59
2022/09/04 01:58:10;;;;;;;;;;;24.60;46.40;;;;;;1594314;72;1956;-59
2022/09/04 02:00:12;;;;;;;;;;;24.60;46.30;;;;;;1590034;72;867;-59
2022/09/04 02:02:16;;;;;;;;;;;24.60;46.40;;;;;;1590142;73;812;-59
2022/09/04 02:04:29;;;;;;;;;;;24.60;46.30;;;;;;1591189;72;1913;-60
2022/09/04 02:06:32;;;;;;;;;;;24.60;46.60;;;;;;1584407;72;772;-57
2022/09/04 02:08:46;;;;;;;;;;;24.60;46.30;;;;;;1565137;75;661;-57
2022/09/04 02:10:58;;;;;;;;;;;24.60;46.10;;;;;;1592935;74;1981;-59
2022/09/04 02:13:02;;;;;;;;;;;24.60;46.50;;;;;;1583245;73;1169;-59
2022/09/04 02:15:12;;;;;;;;;;;24.60;46.20;;;;;;1589880;74;2232;-59
2022/09/04 02:17:17;;;;;;;;;;;24.70;46.40;;;;;;1581488;74;1941;-58
2022/09/04 02:19:37;;;;;;;;;;;24.60;46.20;;;;;;1593282;74;1908;-60
2022/09/04 02:21:40;;;;;;;;;;;24.60;46.10;;;;;;1593064;74;725;-59
2022/09/04 02:23:47;;;;;;;;;;;24.60;46.30;;;;;;1577760;74;1845;-58
2022/09/04 02:25:50;;;;;;;;;;;24.60;46.00;;;;;;1591275;73;1820;-58
2022/09/04 02:27:57;;;;;;;;;;;24.60;46.10;;;;;;1597245;73;726;-59
2022/09/04 02:30:03;;;;;;;;;;;24.60;46.00;;;;;;1598338;73;2140;-58
2022/09/04 02:32:10;;;;;;;;;;;24.60;46.10;;;;;;1607908;73;687;-60
2022/09/04 02:34:25;;;;;;;;;;;24.60;46.00;;;;;;1586196;73;1914;-59
2022/09/04 02:36:32;;;;;;;;;;;24.60;46.10;;;;;;1573117;73;690;-58
2022/09/04 02:38:51;;;;;;;;;;;24.60;46.20;;;;;;1584428;73;2045;-58
2022/09/04 02:40:57;;;;;;;;;;;24.70;46.30;;;;;;1575666;73;1199;-60
2022/09/04 02:43:00;;;;;;;;;;;24.60;46.10;;;;;;1572893;74;1316;-59
2022/09/04 02:45:21;;;;;;;;;;;24.60;46.30;;;;;;1583475;73;2004;-57
2022/09/04 02:47:23;;;;;;;;;;;24.60;46.20;;;;;;1590586;72;712;-60
2022/09/04 02:49:30;;;;;;;;;;;24.60;46.10;;;;;;1591885;72;778;-59
2022/09/04 02:51:48;;;;;;;;;;;24.60;46.00;;;;;;1595168;73;687;-60
2022/09/04 02:54:04;;;;;;;;;;;24.60;46.00;;;;;;1593029;73;1800;-60
2022/09/04 02:56:24;;;;;;;;;;;24.70;46.20;;;;;;1598451;72;1943;-58
2022/09/04 02:58:38;;;;;;;;;;;24.70;46.20;;;;;;1590148;73;1945;-60
2022/09/04 03:00:58;;;;;;;;;;;24.60;45.90;;;;;;1588590;74;1078;-60
2022/09/04 03:03:02;;;;;;;;;;;24.60;46.00;;;;;;1590342;73;1135;-59
2022/09/04 03:05:08;;;;;;;;;;;24.60;46.20;;;;;;1606870;72;710;-58
2022/09/04 03:07:12;;;;;;;;;;;24.60;46.40;;;;;;1597889;73;1744;-59
2022/09/04 03:09:15;;;;;;;;;;;24.70;46.50;;;;;;1581931;74;746;-57
2022/09/04 03:11:28;;;;;;;;;;;24.70;46.60;;;;;;1597458;73;697;-59
2022/09/04 03:13:32;;;;;;;;;;;24.70;46.50;;;;;;1587825;73;2010;-59
2022/09/04 03:15:43;;;;;;;;;;;24.70;46.40;;;;;;1590474;73;775;-60
2022/09/04 03:17:50;;;;;;;;;;;24.70;46.30;;;;;;1590845;72;1941;-59
2022/09/04 03:19:53;;;;;;;;;;;24.70;46.30;;;;;;1588998;72;1540;-59
2022/09/04 03:21:57;;;;;;;;;;;24.70;46.40;;;;;;1604016;73;1901;-60
2022/09/04 03:24:00;;;;;;;;;;;24.70;46.20;;;;;;1575478;74;1846;-60
2022/09/04 03:26:20;;;;;;;;;;;24.60;46.00;;;;;;1596184;73;760;-60
2022/09/04 03:28:27;;;;;;;;;;;24.70;46.10;;;;;;1601736;72;812;-58
2022/09/04 03:30:29;;;;;;;;;;;24.70;46.00;;;;;;1591309;73;1685;-60
2022/09/04 03:32:32;;;;;;;;;;;24.70;46.00;;;;;;1590084;73;711;-60
2022/09/04 03:34:38;;;;;;;;;;;24.70;46.00;;;;;;1592248;73;1605;-59
2022/09/04 03:36:45;;;;;;;;;;;24.80;45.90;;;;;;1594005;73;789;-60
2022/09/04 03:38:56;;;;;;;;;;;24.70;46.00;;;;;;1594593;74;1917;-59
2022/09/04 03:41:10;;;;;;;;;;;24.70;46.10;;;;;;1585207;73;727;-60
2022/09/04 03:43:22;;;;;;;;;;;24.70;46.00;;;;;;1593094;72;1163;-60
2022/09/04 03:45:44;;;;;;;;;;;24.70;45.90;;;;;;1591003;72;1933;-60
2022/09/04 03:47:53;;;;;;;;;;;24.70;46.10;;;;;;1580329;72;763;-60
2022/09/04 03:50:12;;;;;;;;;;;24.70;46.20;;;;;;1552143;72;1225;-58
2022/09/04 03:52:21;;;;;;;;;;;24.70;46.30;;;;;;1586492;72;1842;-58
2022/09/04 03:54:28;;;;;;;;;;;24.70;46.40;;;;;;1597320;73;1903;-59
2022/09/04 03:56:31;;;;;;;;;;;24.70;46.50;;;;;;1594235;74;773;-58
2022/09/04 03:58:36;;;;;;;;;;;24.60;46.40;;;;;;1590430;74;1940;-60
2022/09/04 04:00:55;;;;;;;;;;;24.70;46.50;;;;;;1594104;73;892;-59
2022/09/04 04:03:09;;;;;;;;;;;24.70;46.50;;;;;;1596341;73;1692;-59
2022/09/04 04:05:13;;;;;;;;;;;24.70;46.40;;;;;;1593185;72;1940;-60
2022/09/04 04:07:19;;;;;;;;;;;24.70;46.30;;;;;;1589932;73;809;-59
2022/09/04 04:09:34;;;;;;;;;;;24.70;46.10;;;;;;1590231;72;737;-58
2022/09/04 04:11:55;;;;;;;;;;;24.70;46.00;;;;;;1592871;73;1924;-60
2022/09/04 04:14:13;;;;;;;;;;;24.60;45.80;;;;;;1585193;73;1140;-59
2022/09/04 04:16:20;;;;;;;;;;;24.70;46.20;;;;;;1597964;73;1510;-58
2022/09/04 04:18:33;;;;;;;;;;;24.70;46.10;;;;;;1590964;73;1939;-58
2022/09/04 04:20:37;;;;;;;;;;;24.70;46.00;;;;;;1602457;72;772;-59
2022/09/04 04:22:40;;;;;;;;;;;24.70;46.00;;;;;;1590681;72;1779;-59
2022/09/04 04:24:44;;;;;;;;;;;24.70;46.30;;;;;;1603553;73;1153;-59
2022/09/04 04:26:48;;;;;;;;;;;24.70;46.20;;;;;;1594540;72;730;-59
2022/09/04 04:28:58;;;;;;;;;;;24.70;46.10;;;;;;1592622;73;757;-59
2022/09/04 04:31:11;;;;;;;;;;;24.60;45.90;;;;;;1587235;72;1559;-60
2022/09/04 04:33:20;;;;;;;;;;;24.60;45.90;;;;;;1594222;72;1867;-58
2022/09/04 04:35:36;;;;;;;;;;;24.70;46.20;;;;;;1609068;72;770;-59
2022/09/04 04:37:43;;;;;;;;;;;24.70;46.20;;;;;;1555167;72;230001;-59
2022/09/04 04:39:49;;;;;;;;;;;24.70;45.60;;;;;;1561533;74;1961;-59
2022/09/04 04:42:05;;;;;;;;;;;24.70;45.50;;;;;;1556658;74;1897;-59
2022/09/04 04:44:08;;;;;;;;;;;24.70;45.50;;;;;;1563542;74;1244;-57
2022/09/04 04:46:20;;;;;;;;;;;24.60;45.30;;;;;;1557902;75;2072;-58
2022/09/04 04:48:36;;;;;;;;;;;24.70;45.40;;;;;;1539178;74;2127;-58
2022/09/04 04:50:52;;;;;;;;;;;24.60;45.20;;;;;;1562557;74;756;-59
2022/09/04 04:53:01;;;;;;;;;;;24.70;45.60;;;;;;1549938;75;722;-59
2022/09/04 04:55:20;;;;;;;;;;;24.60;45.40;;;;;;1529575;75;1133;-59
2022/09/04 04:57:31;;;;;;;;;;;24.70;45.60;;;;;;1557889;74;1436;-56
2022/09/04 04:59:42;;;;;;;;;;;24.60;45.40;;;;;;1560476;74;1938;-58
2022/09/04 05:01:49;;;;;;;;;;;24.60;45.30;;;;;;1568990;75;784;-59
2022/09/04 05:04:11;;;;;;;;;;;24.60;45.30;;;;;;1563851;75;1151;-59
2022/09/04 05:06:14;;;;;;;;;;;24.60;45.20;;;;;;1523642;76;1108;-59
2022/09/04 05:08:33;;;;;;;;;;;24.60;45.40;;;;;;1542314;76;723;-59
2022/09/04 05:10:36;;;;;;;;;;;24.70;45.40;;;;;;1522738;76;2067;-59
2022/09/04 05:12:46;;;;;;;;;;;24.70;45.40;;;;;;1557283;74;1549;-57
2022/09/04 05:14:52;;;;;;;;;;;24.60;45.20;;;;;;1546249;74;1092;-59
2022/09/04 05:17:04;;;;;;;;;;;24.70;45.40;;;;;;1560408;75;743;-59
2022/09/04 05:19:20;;;;;;;;;;;24.70;45.20;;;;;;1561857;76;1954;-55
2022/09/04 05:21:24;;;;;;;;;;;24.70;45.20;;;;;;1547523;74;790;-60
2022/09/04 05:23:27;;;;;;;;;;;24.70;45.40;;;;;;1560019;74;1278;-59
2022/09/04 05:25:37;;;;;;;;;;;24.60;45.40;;;;;;1562446;75;716;-58
2022/09/04 05:27:46;;;;;;;;;;;24.70;45.50;;;;;;1561873;74;1541;-56
2022/09/04 05:29:50;;;;;;;;;;;24.70;45.30;;;;;;1556580;75;1905;-58
2022/09/04 05:31:56;;;;;;;;;;;24.70;45.30;;;;;;1573168;75;823;-59
2022/09/04 05:34:06;;;;;;;;;;;24.70;45.20;;;;;;1559853;74;1107;-59
2022/09/04 05:36:10;;;;;;;;;;;24.70;45.10;;;;;;1532454;74;1047;-57
2022/09/04 05:38:28;;;;;;;;;;;24.60;45.00;;;;;;1548386;75;1585;-59
2022/09/04 05:40:38;;;;;;;;;;;24.70;45.20;;;;;;1561989;75;1497;-57
2022/09/04 05:42:53;;;;;;;;;;;24.70;45.20;;;;;;1563658;75;742;-59
2022/09/04 05:44:57;;;;;;;;;;;24.60;45.10;;;;;;1559483;74;2066;-54
2022/09/04 05:47:10;;;;;;;;;;;24.70;45.10;;;;;;1549135;74;840;-56
2022/09/04 05:49:22;;;;;;;;;;;24.60;44.90;;;;;;1571075;75;770;-59
2022/09/04 05:51:42;;;;;;;;;;;24.60;44.90;;;;;;1567990;75;825;-59
2022/09/04 05:53:51;;;;;;;;;;;24.60;44.90;;;;;;1562152;75;1127;-56
2022/09/04 05:55:58;;;;;;;;;;;24.60;45.00;;;;;;1551988;74;1602;-59
2022/09/04 05:58:11;;;;;;;;;;;24.60;44.90;;;;;;1544176;74;703;-58
2022/09/04 06:00:16;;;;;;;;;;;24.60;44.90;;;;;;1564362;75;1928;-59
2022/09/04 06:02:35;;;;;;;;;;;24.70;45.10;;;;;;1570689;75;807;-59
2022/09/04 06:04:56;;;;;;;;;;;24.60;45.30;;;;;;1557388;75;1075;-59
2022/09/04 06:07:00;;;;;;;;;;;24.70;45.40;;;;;;1559794;74;1854;-56
2022/09/04 06:09:09;;;;;;;;;;;24.70;45.50;;;;;;1557622;75;1893;-59
2022/09/04 06:11:29;;;;;;;;;;;24.70;46.20;;;;;;1549831;75;1761;-58
2022/09/04 06:13:33;;;;;;;;;;;24.80;45.50;;;;;;1557478;74;1150;-59
2022/09/04 06:15:36;;;;;;;;;;;24.70;45.30;;;;;;1550377;74;1872;-60
2022/09/04 06:17:43;;;;;;;;;;;24.60;45.20;;;;;;1547036;75;761;-59
2022/09/04 06:19:46;;;;;;;;;;;24.60;45.20;;;;;;1551391;75;1918;-58
2022/09/04 06:21:50;;;;;;;;;;;24.60;45.40;;;;;;1550839;75;1508;-56
2022/09/04 06:24:12;;;;;;;;;;;24.60;45.60;;;;;;1548504;74;1966;-58
2022/09/04 06:26:15;;;;;;;;;;;24.50;45.60;;;;;;1553406;74;1586;-56
2022/09/04 06:28:18;;;;;;;;;;;24.50;45.70;;;;;;1556392;74;748;-58
2022/09/04 06:30:20;;;;;;;;;;;24.50;45.70;;;;;;1549862;74;751;-57
2022/09/04 06:32:42;;;;;;;;;;;24.50;45.80;;;;;;1551859;75;737;-55
2022/09/04 06:34:46;;;;;;;;;;;24.50;45.90;;;;;;1559486;75;1950;-55
2022/09/04 06:37:01;;;;;;;;;;;24.50;45.90;;;;;;1559433;74;2461;-55
2022/09/04 06:39:11;;;;;;;;;;;24.50;46.00;;;;;;1559909;75;1975;-57
2022/09/04 06:41:20;;;;;;;;;;;24.40;46.00;;;;;;1556568;75;706;-60
2022/09/04 06:43:36;;;;;;;;;;;24.40;46.00;;;;;;1553962;75;1113;-58
2022/09/04 06:45:46;;;;;;;;;;;24.40;46.00;;;;;;1561544;74;669;-58
2022/09/04 06:47:49;;;;;;;;;;;24.40;46.00;;;;;;1551771;74;1508;-57
2022/09/04 06:50:08;;;;;;;;;;;24.30;46.10;;;;;;1552702;75;1888;-60
2022/09/04 06:52:21;;;;;;;;;;;24.40;46.10;;;;;;1546538;75;1890;-60
2022/09/04 06:54:30;;;;;;;;;;;24.50;46.20;;;;;;1567369;73;1137;-58
2022/09/04 06:56:46;;;;;;;;;;;24.40;46.10;;;;;;1560850;74;673;-58
2022/09/04 06:58:55;;;;;;;;;;;24.40;46.10;;;;;;1568345;75;1919;-60
2022/09/04 07:01:01;;;;;;;;;;;24.50;46.20;;;;;;1563456;75;672;-58
2022/09/04 07:03:05;;;;;;;;;;;24.40;46.10;;;;;;1562869;75;1151;-59
2022/09/04 07:05:26;;;;;;;;;;;24.50;46.20;;;;;;1560751;74;1976;-60
2022/09/04 07:07:29;;;;;;;;;;;24.40;46.00;;;;;;1552962;74;722;-55
2022/09/04 07:09:33;;;;;;;;;;;24.40;46.10;;;;;;1556668;74;734;-59
2022/09/04 07:11:54;;;;;;;;;;;24.50;46.10;;;;;;1561890;74;817;-60
2022/09/04 07:14:15;;;;;;;;;;;24.50;46.10;;;;;;1562523;74;1144;-57
2022/09/04 07:16:21;;;;;;;;;;;24.50;46.10;;;;;;1551310;74;1612;-59
2022/09/04 07:18:41;;;;;;;;;;;24.50;46.00;;;;;;1562450;75;843;-61
2022/09/04 07:20:45;;;;;;;;;;;24.50;46.00;;;;;;1558798;74;1590;-59
2022/09/04 07:23:03;;;;;;;;;;;24.50;45.90;;;;;;1564033;74;715;-57
2022/09/04 07:25:07;;;;;;;;;;;24.60;45.80;;;;;;1566944;75;772;-60
2022/09/04 07:27:19;;;;;;;;;;;24.50;45.80;;;;;;1583399;74;760;-58
2022/09/04 07:29:23;;;;;;;;;;;24.70;45.90;;;;;;1557181;74;793;-60
2022/09/04 07:31:33;;;;;;;;;;;24.60;45.70;;;;;;1556743;75;1722;-56
2022/09/04 07:33:39;;;;;;;;;;;24.60;45.70;;;;;;1557966;75;1805;-57
2022/09/04 07:35:46;;;;;;;;;;;24.60;45.70;;;;;;1555695;74;656;-58
2022/09/04 07:37:49;;;;;;;;;;;24.60;45.70;;;;;;1560029;74;2206;-56
2022/09/04 07:39:55;;;;;;;;;;;24.70;45.70;;;;;;1557791;75;1936;-57
2022/09/04 07:42:02;;;;;;;;;;;24.70;45.50;;;;;;1562927;75;798;-58
2022/09/04 07:44:18;;;;;;;;;;;24.70;45.50;;;;;;1565840;74;2073;-56
2022/09/04 07:46:29;;;;;;;;;;;24.70;45.50;;;;;;1552774;74;770;-55
2022/09/04 07:48:38;;;;;;;;;;;24.80;45.50;;;;;;1557429;75;1520;-58
2022/09/04 07:51:03;;;;;;;;;;;24.70;45.50;;;;;;1552638;75;693;-58
2022/09/04 07:53:13;;;;;;;;;;;24.70;45.50;;;;;;1527462;76;1169;-60
2022/09/04 07:55:19;;;;;;;;;;;24.70;45.50;;;;;;1534488;76;706;-58
2022/09/04 07:57:28;;;;;;;;;;;24.70;45.50;;;;;;1533442;76;2162;-57
2022/09/04 07:59:32;;;;;;;;;;;24.80;45.50;;;;;;1558284;75;1936;-60
2022/09/04 08:01:38;;;;;;;;;;;24.80;45.50;;;;;;1555514;75;1818;-60
2022/09/04 08:03:42;;;;;;;;;;;24.80;45.40;;;;;;1551222;74;1825;-58
2022/09/04 08:05:48;;;;;;;;;;;24.80;45.30;;;;;;1552196;74;737;-55
2022/09/04 08:08:00;;;;;;;;;;;24.90;45.40;;;;;;1561982;75;1497;-57
2022/09/04 08:10:07;;;;;;;;;;;24.80;45.30;;;;;;1570007;75;1699;-55
2022/09/04 08:12:28;;;;;;;;;;;24.80;45.40;;;;;;1561174;75;1508;-57
2022/09/04 08:14:41;;;;;;;;;;;24.80;45.40;;;;;;1568423;75;1132;-57
2022/09/04 08:16:56;;;;;;;;;;;24.80;45.50;;;;;;1565484;74;1647;-60
2022/09/04 08:19:12;;;;;;;;;;;24.80;45.40;;;;;;1559174;74;729;-59
2022/09/04 08:21:16;;;;;;;;;;;24.80;45.30;;;;;;1564267;75;1726;-56
2022/09/04 08:23:32;;;;;;;;;;;24.80;45.40;;;;;;1576270;75;1114;-57
2022/09/04 08:25:44;;;;;;;;;;;24.80;45.30;;;;;;1562960;74;1852;-58
2022/09/04 08:27:54;;;;;;;;;;;24.80;45.30;;;;;;1563425;75;735;-58
2022/09/04 08:30:03;;;;;;;;;;;24.90;45.40;;;;;;1559203;75;1562;-56
2022/09/04 08:32:09;;;;;;;;;;;24.80;45.40;;;;;;1564377;75;1437;-57
2022/09/04 08:34:12;;;;;;;;;;;24.80;45.40;;;;;;1562918;75;1255;-56
2022/09/04 08:36:16;;;;;;;;;;;24.80;45.40;;;;;;1568669;74;1012;-56
2022/09/04 08:38:36;;;;;;;;;;;24.80;45.30;;;;;;1553219;75;1157;-57
2022/09/04 08:40:58;;;;;;;;;;;25.00;45.30;;;;;;1559939;74;1903;-56
2022/09/04 08:43:16;;;;;;;;;;;25.00;45.30;;;;;;1557038;75;736;-56
2022/09/04 08:45:21;;;;;;;;;;;25.00;45.30;;;;;;1549678;75;747;-60
2022/09/04 08:47:30;;;;;;;;;;;25.00;45.30;;;;;;1537340;75;2180;-59
2022/09/04 08:49:43;;;;;;;;;;;25.00;45.20;;;;;;1568404;74;768;-56
2022/09/04 08:52:05;;;;;;;;;;;25.00;45.20;;;;;;1587202;73;981;-60
2022/09/04 08:54:14;;;;;;;;;;;25.00;45.20;;;;;;1586180;73;1106;-58
2022/09/04 08:56:21;;;;;;;;;;;25.10;45.20;;;;;;1580813;73;829;-59
2022/09/04 08:58:40;;;;;;;;;;;25.00;45.20;;;;;;1588518;73;1444;-57
2022/09/04 09:01:03;;;;;;;;;;;25.00;45.20;;;;;;1585499;73;1925;-57
2022/09/04 09:03:24;;;;;;;;;;;25.00;45.20;;;;;;1583044;73;1142;-59
2022/09/04 09:05:44;;;;;;;;;;;25.00;45.20;;;;;;1593158;73;771;-60
2022/09/04 09:07:59;;;;;;;;;;;25.00;45.20;;;;;;1597356;73;704;-58
2022/09/04 09:10:08;;;;;;;;;;;25.00;45.30;;;;;;1536557;75;760;-59
2022/09/04 09:12:17;;;;;;;;;;;25.00;45.20;;;;;;1533683;76;1536;-60
2022/09/04 09:14:21;;;;;;;;;;;25.00;45.20;;;;;;1591210;73;1115;-60
2022/09/04 09:16:30;;;;;;;;;;;25.00;45.10;;;;;;1591886;73;747;-59
2022/09/04 09:18:51;;;;;;;;;;;25.00;45.10;;;;;;1588044;73;992;-58
2022/09/04 09:20:53;;;;;;;;;;;25.00;45.20;;;;;;1578535;73;1939;-57
2022/09/04 09:23:13;;;;;;;;;;;25.00;45.20;;;;;;1594245;73;751;-57
2022/09/04 09:25:19;;;;;;;;;;;25.00;45.20;;;;;;1593796;73;803;-56
2022/09/04 09:27:38;;;;;;;;;;;25.00;45.20;;;;;;1588786;73;1624;-56
2022/09/04 09:29:42;;;;;;;;;;;25.00;45.10;;;;;;1592375;73;718;-56
2022/09/04 09:31:46;;;;;;;;;;;25.10;45.20;;;;;;1590490;73;758;-60
2022/09/04 09:33:49;;;;;;;;;;;25.10;45.10;;;;;;1584865;73;1135;-57
2022/09/04 09:35:54;;;;;;;;;;;25.10;45.10;;;;;;1590504;73;1945;-58
2022/09/04 09:38:14;;;;;;;;;;;25.20;45.00;;;;;;1589838;73;2267;-56
2022/09/04 09:40:27;;;;;;;;;;;25.10;45.00;;;;;;1586664;73;1932;-60
2022/09/04 09:42:36;;;;;;;;;;;25.10;45.00;;;;;;1597259;73;891;-59
2022/09/04 09:44:57;;;;;;;;;;;25.20;45.00;;;;;;1563735;74;1939;-60
2022/09/04 09:47:07;;;;;;;;;;;25.10;45.00;;;;;;1587030;73;1114;-56
2022/09/04 09:49:14;;;;;;;;;;;25.10;45.00;;;;;;1604681;73;1109;-57
2022/09/04 09:51:34;;;;;;;;;;;25.10;45.00;;;;;;1602782;73;834;-60
2022/09/04 09:53:40;;;;;;;;;;;25.20;45.00;;;;;;1590377;73;1568;-59
2022/09/04 09:55:50;;;;;;;;;;;25.10;45.10;;;;;;1590940;73;725;-60
2022/09/04 09:58:02;;;;;;;;;;;25.20;45.20;;;;;;1593904;73;723;-59
2022/09/04 10:00:14;;;;;;;;;;;25.20;45.30;;;;;;1596816;73;1929;-58
2022/09/04 10:02:34;;;;;;;;;;;25.20;45.50;;;;;;1600121;73;730;-58
2022/09/04 10:04:41;;;;;;;;;;;25.20;45.50;;;;;;1604399;73;1106;-58
2022/09/04 10:06:53;;;;;;;;;;;25.20;45.60;;;;;;1598487;73;1040;-58
2022/09/04 10:09:03;;;;;;;;;;;25.30;45.70;;;;;;1595186;73;1537;-59
2022/09/04 10:11:09;;;;;;;;;;;25.30;45.90;;;;;;1585810;74;754;-60
2022/09/04 10:13:31;;;;;;;;;;;25.30;45.90;;;;;;1598015;73;1090;-59
2022/09/04 10:15:47;;;;;;;;;;;25.30;46.20;;;;;;1588735;73;931;-59
2022/09/04 10:18:07;;;;;;;;;;;25.30;46.30;;;;;;1587784;74;766;-59
2022/09/04 10:20:28;;;;;;;;;;;25.20;46.30;;;;;;1584053;74;1937;-59
2022/09/04 10:22:35;;;;;;;;;;;25.20;46.50;;;;;;1575076;73;1594;-58
2022/09/04 10:24:45;;;;;;;;;;;25.30;46.40;;;;;;1590823;74;1135;-60
2022/09/04 10:27:07;;;;;;;;;;;25.30;46.40;;;;;;1591037;74;723;-58
2022/09/04 10:29:19;;;;;;;;;;;25.30;46.30;;;;;;1597786;73;781;-58
2022/09/04 10:31:29;;;;;;;;;;;25.30;47.60;;;;;;1575602;74;1577;-59
2022/09/04 10:33:39;;;;;;;;;;;25.10;46.70;;;;;;1587920;74;1754;-60
2022/09/04 10:35:55;;;;;;;;;;;25.20;46.50;;;;;;1547032;75;1939;-60
2022/09/04 10:37:58;;;;;;;;;;;25.10;46.80;;;;;;1542226;74;229483;-62
2022/09/04 10:42:32;;;;;;;;;;;25.10;47.00;;;;;;1551526;75;1634;-64
2022/09/04 10:44:52;;;;;;;;;;;25.10;47.30;;;;;;1558051;76;1944;-62
2022/09/04 10:47:11;;;;;;;;;;;25.10;47.10;;;;;;1573695;74;1190;-63
2022/09/04 10:49:14;;;;;;;;;;;25.10;46.80;;;;;;1553611;75;784;-63
2022/09/04 10:51:33;;;;;;;;;;;25.30;46.20;;;;;;1520560;76;1977;-64
2022/09/04 10:53:38;;;;;;;;;;;25.30;46.00;;;;;;1551211;75;1691;-63
2022/09/04 10:55:42;;;;;;;;;;;25.20;46.00;;;;;;1553116;75;722;-63
2022/09/04 10:57:49;;;;;;;;;;;25.20;45.90;;;;;;1549023;75;1578;-64
2022/09/04 10:59:56;;;;;;;;;;;25.20;45.90;;;;;;1549150;75;1974;-64
2022/09/04 11:02:00;;;;;;;;;;;25.20;45.80;;;;;;1553418;75;1976;-63
2022/09/04 11:04:03;;;;;;;;;;;25.30;45.60;;;;;;1560304;75;1519;-63
2022/09/04 11:06:09;;;;;;;;;;;25.10;45.60;;;;;;1568605;75;808;-63
2022/09/04 11:08:35;;;;;;;;;;;25.10;45.50;;;;;;1571775;74;1604;-63
2022/09/04 11:10:38;;;;;;;;;;;25.10;45.30;;;;;;1556969;75;1525;-62
2022/09/04 11:12:45;;;;;;;;;;;25.10;45.40;;;;;;1557000;75;725;-64
2022/09/04 11:14:48;;;;;;;;;;;25.10;45.40;;;;;;1562402;75;992;-63
2022/09/04 11:17:08;;;;;;;;;;;25.10;45.30;;;;;;1526874;76;1163;-63
2022/09/04 11:19:19;;;;;;;;;;;25.10;45.30;;;;;;1563171;75;1528;-61
2022/09/04 11:21:39;;;;;;;;;;;25.10;45.20;;;;;;1527494;76;1945;-62
2022/09/04 11:23:59;;;;;;;;;;;25.00;45.10;;;;;;1538583;76;770;-63
2022/09/04 11:26:06;;;;;;;;;;;25.00;45.10;;;;;;1537773;76;764;-63
2022/09/04 11:28:15;;;;;;;;;;;25.00;45.30;;;;;;1548033;76;1188;-63
2022/09/04 11:30:22;;;;;;;;;;;25.00;45.30;;;;;;1545316;76;761;-63
2022/09/04 11:32:30;;;;;;;;;;;25.00;45.20;;;;;;1539078;76;1590;-64
2022/09/04 11:34:52;;;;;;;;;;;25.00;45.00;;;;;;1534873;77;1751;-64
2022/09/04 11:36:55;;;;;;;;;;;24.90;44.90;;;;;;1537719;76;1591;-63
2022/09/04 11:39:02;;;;;;;;;;;24.90;44.80;;;;;;1538922;76;1840;-63
2022/09/04 11:41:23;;;;;;;;;;;24.90;44.80;;;;;;1561813;75;1914;-63
2022/09/04 11:43:27;;;;;;;;;;;24.90;44.80;;;;;;1558754;75;747;-65
2022/09/04 11:45:30;;;;;;;;;;;24.80;44.80;;;;;;1566022;75;768;-63
2022/09/04 11:47:36;;;;;;;;;;;24.80;44.70;;;;;;1560980;75;1577;-63
2022/09/04 11:49:46;;;;;;;;;;;24.90;44.80;;;;;;1563962;75;826;-63
2022/09/04 11:51:52;;;;;;;;;;;25.00;44.80;;;;;;1554534;75;2011;-63
2022/09/04 11:53:59;;;;;;;;;;;24.90;44.80;;;;;;1565452;74;736;-63
2022/09/04 11:56:05;;;;;;;;;;;24.90;44.70;;;;;;1558990;75;2070;-64
2022/09/04 11:58:21;;;;;;;;;;;24.90;44.50;;;;;;1560250;75;1138;-63
2022/09/04 12:00:23;;;;;;;;;;;24.90;44.60;;;;;;1561088;74;1936;-63
2022/09/04 12:02:26;;;;;;;;;;;25.00;44.70;;;;;;1565254;75;782;-64
2022/09/04 12:04:30;;;;;;;;;;;25.00;44.70;;;;;;1549152;75;1145;-64
2022/09/04 12:06:34;;;;;;;;;;;25.00;44.60;;;;;;1560645;75;1169;-64
2022/09/04 12:08:54;;;;;;;;;;;25.00;44.50;;;;;;1565090;75;692;-63
2022/09/04 12:11:14;;;;;;;;;;;25.00;44.50;;;;;;1566655;75;803;-63
2022/09/04 12:13:17;;;;;;;;;;;25.00;44.40;;;;;;1551790;74;737;-63
2022/09/04 12:15:21;;;;;;;;;;;24.90;44.40;;;;;;1548577;75;1592;-63
2022/09/04 12:17:24;;;;;;;;;;;24.90;44.40;;;;;;1562256;74;1928;-63
2022/09/04 12:19:31;;;;;;;;;;;24.90;44.50;;;;;;1562002;75;777;-63
2022/09/04 12:21:52;;;;;;;;;;;24.90;44.50;;;;;;1562423;75;2340;-63
2022/09/04 12:23:56;;;;;;;;;;;24.90;44.50;;;;;;1562648;75;803;-64
2022/09/04 12:26:16;;;;;;;;;;;24.80;44.50;;;;;;1526607;76;1926;-63
2022/09/04 12:28:33;;;;;;;;;;;24.90;44.50;;;;;;1554122;75;1576;-63
2022/09/04 12:30:53;;;;;;;;;;;24.90;44.50;;;;;;1559198;75;2423;-63
2022/09/04 12:32:59;;;;;;;;;;;24.90;44.60;;;;;;1532046;76;653;-63
2022/09/04 12:35:19;;;;;;;;;;;25.00;44.50;;;;;;1544693;76;1651;-63
2022/09/04 12:37:29;;;;;;;;;;;24.90;44.40;;;;;;1541293;76;1174;-63
2022/09/04 12:39:39;;;;;;;;;;;24.90;44.40;;;;;;1539274;77;2193;-63
2022/09/04 12:41:42;;;;;;;;;;;24.90;44.50;;;;;;1538504;76;1927;-63
2022/09/04 12:43:55;;;;;;;;;;;24.90;44.40;;;;;;1542790;76;1545;-63
2022/09/04 12:46:02;;;;;;;;;;;24.90;44.40;;;;;;1532480;76;596;-63
2022/09/04 12:48:12;;;;;;;;;;;24.90;44.50;;;;;;1537394;76;1169;-63
2022/09/04 12:50:18;;;;;;;;;;;24.90;44.50;;;;;;1540777;76;697;-63
2022/09/04 12:52:28;;;;;;;;;;;24.90;44.40;;;;;;1540378;76;750;-63
2022/09/04 12:54:38;;;;;;;;;;;24.90;44.10;;;;;;1538986;76;875;-63
2022/09/04 12:56:46;;;;;;;;;;;25.00;44.30;;;;;;1543204;76;1498;-68